KLRF/LRF METAR and TAF weather

Enter ICAO airport designator
Station Type Date Time Source
KLRF METAR 2021/05/14 06:56 UTC NOAA

KLRF 140656Z AUTO 00000KT 10SM CLR 08/07 A3029 RMK AO2 SLP260 T00820070 $


Station Type Date Time Source
KLRF Decoded METAR 2021/05/14 06:56 UTC NOAA

Little Rock Air Force Base, AR, United States (KLRF) 34-55N 092-09W
May 14, 2021 - 02:56 AM EDT / 2021.05.14 0656 UTC
Wind: Calm:0
Visibility: 10 mile(s):0
Sky conditions: clear
Temperature: 46.8 F (8.2 C)
Dew Point: 44.6 F (7.0 C)
Relative Humidity: 92%
Pressure (altimeter): 30.29 in. Hg (1025 hPa)
ob: KLRF 140656Z AUTO 00000KT 10SM CLR 08/07 A3029 RMK AO2 SLP260 T00820070
cycle: 7

Station Type Date Time Source
KLRF TAF 2021/05/14 07:06 UTC NOAA

TAF TAF KLRF 140700Z 1407/1513 VRB03KT 9999 SKC QNH3028INS
BECMG 1412/1413 09009KT 9999 FEW140 QNH3019INS
BECMG 1422/1423 09006KT 9999 FEW140 QNH3017INS TX25/1420Z TN07/1412Z

Example: see airport list